Weather in Lodz

0854 UTC 18 October 2017 EPLL 180830Z 24005KT 200V260 CAVOK 16/12 Q1017

Where pilots are born

  • Jeremie from Belgium

    "Bartolini Air est une super ecole : les instructeurs et les dirigeants sont a la disposition des eleve-pilotes non...

  • Ismail

    Best school, friendly staff, amazing instructors. Cheers,

  • Maxime from Belgium

    I would like to thank you again Bartolini Air for their professionalism and commitment. It is a high quality training with...

22000+

Operations per year

1500+

Number of trained pilots

55+

Nationality students

How to join the training?